Surface/Precipitation History
06/19/2018 01:34  to  6/20/2018 01:34
Change End Date:
Date/Time
(MDT)
Sf
Temp Chem Water Layer Surface Precipitation
Sfc Pvt Sub Frz Factor Pct Dpth DpthThk IcePct Cond Salin FI Type Intens Accum Rate
06/20/2018 01:22 Dry 47.1F - 57F - - - - - - 0 mhos 4 - None None 0.12 in 0.0 iph
06/20/2018 01:13 Dry 46.8F - 57F - - - - - - 0 mhos 5 - None None 0.12 in 0.0 iph
06/20/2018 01:07 Dry 46.8F - 57F - - - - - - 0 mhos 5 - None None 0.12 in 0.0 iph
06/20/2018 01:03 Dry 46.9F - 57F - - - - - - 0 mhos 5 - None None 0.12 in 0.0 iph
06/20/2018 00:53 Dry 46.9F - 57F - - - - - - 0 mhos 5 - None None 0.12 in 0.0 iph
06/20/2018 00:52 Dry 46.9F - 57F - - - - - - 0 mhos 5 - None None 0.12 in 0.0 iph
06/20/2018 00:43 Dry 47.3F - 57F - - - - - - 0 mhos 5 - None None 0.13 in 0.0 iph
06/20/2018 00:37 Dry 47.5F - 57F - - - - - - 0 mhos 6 - None None 0.13 in 0.0 iph
06/20/2018 00:33 Dry 47.7F - 57F - - - - - - 0 mhos 6 - None None 0.13 in 0.0 iph
06/20/2018 00:23 Dry 48.0F - 57F - - - - - - 0 mhos 6 - None None 0.13 in 0.0 iph
06/20/2018 00:22 Dry 48.2F - 57F - - - - - - 0 mhos 6 - None None 0.13 in 0.0 iph
06/20/2018 00:13 Dry 48.4F - 58F - - - - - - 0 mhos 6 - None None 0.13 in 0.0 iph
06/20/2018 00:07 Dry 48.7F - 57F - - - - - - 0 mhos 6 - None None 0.14 in 0.0 iph
06/20/2018 00:03 Dry 48.9F - 57F - - - - - - 0 mhos 6 - None None 0.14 in 0.0 iph
06/19/2018 23:53 Dry 48.9F - 57F - - - - - - 0 mhos 7 - None None 0.14 in 0.0 iph
Date/Time
(MDT)
Sf
Temp Chem Water Layer Surface Precipitation
Sfc Pvt Sub Frz Factor Pct Dpth DpthThk IcePct Cond Salin FI Type Intens Accum Rate
06/19/2018 23:52 Wet 48.9F - 57F 32F 5 0% 0.00 in - 0% 0 mhos 7 - None None 0.14 in 0.0 iph
06/19/2018 23:43 Wet 49.1F - 57F 32F 5 0% 0.00 in - 0% 0 mhos 8 - None None 0.14 in 0.0 iph
06/19/2018 23:37 Wet 49.1F - 57F 32F 5 0% 0.00 in - 0% 0 mhos 8 - None None 0.15 in 0.0 iph
06/19/2018 23:33 Wet 49.3F - 57F 32F 5 0% 0.00 in - 0% 0 mhos 8 - None None 0.15 in 0.0 iph
06/19/2018 23:23 Wet 49.5F - 57F 32F 5 0% 0.00 in - 0% 0 mhos 8 - None None 0.15 in 0.0 iph
06/19/2018 23:22 Wet 49.5F - 57F 32F 5 0% 0.00 in - 0% 0 mhos 9 - None None 0.15 in 0.0 iph
06/19/2018 23:13 Wet 49.5F - 57F 32F 5 0% 0.00 in - 0% 0 mhos 9 - None None 0.15 in 0.0 iph
06/19/2018 23:07 Wet 49.6F - 57F 32F 5 0% 0.00 in - 0% 0 mhos 9 - None None 0.15 in 0.0 iph
06/19/2018 23:03 Wet 49.8F - 57F 32F 5 0% 0.00 in - 0% 0 mhos 9 - None None 0.15 in 0.0 iph
06/19/2018 22:53 Wet 50.4F - 57F 32F 5 0% 0.00 in - 0% 0 mhos 10 - None None 0.15 in 0.0 iph
06/19/2018 22:52 Wet 50.2F - 57F 32F 5 0% 0.00 in - 0% 0 mhos 10 - None None 0.15 in 0.0 iph
06/19/2018 22:42 Wet 50.4F - 57F 32F 5 0% 0.00 in - 0% 0 mhos 11 - None None 0.15 in 0.0 iph
06/19/2018 22:37 Wet 50.5F - 57F 32F 5 0% 0.00 in - 0% 0 mhos 11 - None None 0.15 in 0.0 iph
06/19/2018 22:32 Wet 50.7F - 57F 32F 5 0% 0.00 in - 0% 0 mhos 11 - None None 0.15 in 0.0 iph
06/19/2018 22:22 Wet 51.1F - 57F 32F 5 0% 0.00 in - 0% 0 mhos 12 - None None 0.15 in 0.0 iph
Date/Time
(MDT)
Sf
Temp Chem Water Layer Surface Precipitation
Sfc Pvt Sub Frz Factor Pct Dpth DpthThk IcePct Cond Salin FI Type Intens Accum Rate
06/19/2018 22:21 Wet 51.1F - 57F 32F 5 0% 0.00 in - 0% 0 mhos 12 - None None 0.15 in 0.0 iph
06/19/2018 22:12 Wet 51.6F - 57F 32F 5 0% 0.00 in - 0% 0 mhos 12 - None None 0.15 in 0.0 iph
06/19/2018 22:06 Wet 52.0F - 57F 32F 5 0% 0.00 in - 0% 0 mhos 12 - None None 0.15 in 0.0 iph
06/19/2018 22:02 Wet 52.2F - 57F 32F 5 0% 0.00 in - 0% 0 mhos 12 - None None 0.15 in 0.0 iph
06/19/2018 21:52 Wet 53.2F - 57F 32F 5 0% 0.00 in - 0% 0 mhos 13 - None None 0.15 in 0.0 iph
06/19/2018 21:51 Wet 53.2F - 57F 32F 5 0% 0.00 in - 0% 0 mhos 13 - None None 0.15 in 0.0 iph
06/19/2018 21:42 Wet 53.6F - 57F 32F 5 0% 0.00 in - 0% 0 mhos 15 - None None 0.16 in 0.0 iph
06/19/2018 21:32 Wet 54.3F - 57F 32F 5 0% 0.00 in - 0% 0 mhos 15 - None None 0.16 in 0.0 iph
06/19/2018 21:22 Wet 54.5F - 57F 32F 5 0% 0.00 in - 0% 0 mhos 15 - None None 0.17 in 0.0 iph
06/19/2018 21:21 Wet 54.5F - 57F 32F 5 0% 0.00 in - 0% 0 mhos 15 - None None 0.17 in 0.0 iph
06/19/2018 21:12 Wet 54.5F - 57F 32F 5 0% 0.00 in - 0% 0 mhos 15 - None None 0.17 in 0.0 iph
06/19/2018 21:06 Wet 54.7F - 57F 32F 5 0% 0.00 in - 0% 0 mhos 14 - None None 0.18 in 0.0 iph
06/19/2018 21:02 Wet 55.0F - 57F 32F 5 0% 0.00 in - 0% 0 mhos 14 - None None 0.18 in 0.0 iph
06/19/2018 20:52 Wet 55.2F - 57F 32F 5 0% 0.00 in - 0% 0 mhos 13 - None None 0.18 in 0.0 iph
06/19/2018 20:51 Wet 55.4F - 57F 32F 5 0% 0.00 in - 0% 0 mhos 13 - None None 0.18 in 0.0 iph
Date/Time
(MDT)
Sf
Temp Chem Water Layer Surface Precipitation
Sfc Pvt Sub Frz Factor Pct Dpth DpthThk IcePct Cond Salin FI Type Intens Accum Rate
06/19/2018 20:42 Wet 55.8F - 57F 32F 5 0% 0.00 in - 0% 0 mhos 11 - None None 0.19 in 0.0 iph
06/19/2018 20:37 Wet 55.9F - 57F 32F 5 0% 0.00 in - 0% 0 mhos 12 - None None 0.19 in 0.0 iph
06/19/2018 20:32 Wet 55.9F - 57F 32F 5 0% 0.00 in - 0% 0 mhos 11 - None None 0.19 in 0.0 iph
06/19/2018 20:22 Wet 56.5F - 57F 32F 5 0% 0.00 in - 0% 0 mhos 9 - None None 0.19 in 0.0 iph
06/19/2018 20:22 Wet 56.5F - 57F 32F 5 0% 0.00 in - 0% 0 mhos 9 - None None 0.19 in 0.0 iph
06/19/2018 20:12 Wet 57.0F - 57F 32F 5 0% 0.00 in - 0% 0 mhos 8 - Rain Slight 0.20 in 0.0 iph
06/19/2018 20:07 Wet 57.6F - 57F 32F 5 0% 0.20 in - 0% 0 mhos 1 - Rain Slight 0.20 in 0.1 iph
06/19/2018 20:02 Dry 58.3F - 57F - - - - - - 0 mhos 0 - Rain Slight 0.20 in 0.0 iph
06/19/2018 19:52 Dry 59.7F - 57F - - - - - - 0 mhos 0 - Rain Slight 0.20 in 0.0 iph
06/19/2018 19:51 Dry 59.7F - 57F - - - - - - 0 mhos 0 - Rain Slight 0.20 in 0.0 iph
06/19/2018 19:41 Dry 61.0F - 57F - - - - - - 0 mhos 0 - None None 0.21 in 0.0 iph
06/19/2018 19:36 Dry 60.8F - 57F - - - - - - 0 mhos 0 - None None 0.21 in 0.0 iph
06/19/2018 19:31 Dry 61.2F - 57F - - - - - - 0 mhos 0 - None None 0.21 in 0.0 iph
06/19/2018 19:21 Dry 61.2F - 57F - - - - - - 0 mhos 0 - None None 0.22 in 0.0 iph
06/19/2018 19:21 Dry 61.2F - 57F - - - - - - 0 mhos 0 - None None 0.22 in 0.0 iph
Date/Time
(MDT)
Sf
Temp Chem Water Layer Surface Precipitation
Sfc Pvt Sub Frz Factor Pct Dpth DpthThk IcePct Cond Salin FI Type Intens Accum Rate
06/19/2018 19:11 Dry 61.5F - 56F - - - - - - 0 mhos 0 - None None 0.22 in 0.0 iph
06/19/2018 19:06 Dry 61.7F - 57F - - - - - - 0 mhos 0 - None None 0.23 in 0.0 iph
06/19/2018 19:01 Dry 61.9F - 56F - - - - - - 0 mhos 0 - None None 0.23 in 0.0 iph
06/19/2018 18:51 Dry 62.2F - 56F - - - - - - 0 mhos 0 - None None 0.23 in 0.0 iph
06/19/2018 18:51 Dry 62.2F - 56F - - - - - - 0 mhos 0 - None None 0.23 in 0.0 iph
06/19/2018 18:41 Dry 62.6F - 56F - - - - - - 0 mhos 0 - None None 0.23 in 0.0 iph
06/19/2018 18:36 Dry 62.8F - 56F - - - - - - 0 mhos 0 - None None 0.28 in 0.0 iph
06/19/2018 18:31 Dry 63.0F - 56F - - - - - - 0 mhos 0 - None None 0.28 in 0.0 iph
06/19/2018 18:21 Dry 63.5F - 56F - - - - - - 0 mhos 0 - None None 0.33 in 0.0 iph
06/19/2018 18:21 Dry 63.5F - 56F - - - - - - 0 mhos 0 - None None 0.33 in 0.0 iph
06/19/2018 18:11 Dry 64.0F - 56F - - - - - - 0 mhos 0 - None None 0.33 in 0.0 iph
06/19/2018 18:06 Dry 64.6F - 56F - - - - - - 0 mhos 0 - None None 0.34 in 0.0 iph
06/19/2018 18:01 Dry 65.1F - 56F - - - - - - 0 mhos 0 - None None 0.34 in 0.0 iph
06/19/2018 17:51 Dry 66.4F - 56F - - - - - - 0 mhos 0 - None None 0.34 in 0.0 iph
06/19/2018 17:51 Dry 66.4F - 56F - - - - - - 0 mhos 0 - None None 0.34 in 0.0 iph
Date/Time
(MDT)
Sf
Temp Chem Water Layer Surface Precipitation
Sfc Pvt Sub Frz Factor Pct Dpth DpthThk IcePct Cond Salin FI Type Intens Accum Rate
06/19/2018 17:41 Dry 67.5F - 56F - - - - - - 0 mhos 0 - None None 0.34 in 0.0 iph
06/19/2018 17:36 Dry 67.8F - 56F - - - - - - 0 mhos 0 - None None 0.34 in 0.0 iph
06/19/2018 17:31 Dry 68.0F - 56F - - - - - - 0 mhos 0 - None None 0.34 in 0.0 iph
06/19/2018 17:21 Dry 67.5F - 56F - - - - - - 0 mhos 0 - None None 0.35 in 0.0 iph
06/19/2018 17:21 Dry 67.5F - 56F - - - - - - 0 mhos 0 - None None 0.35 in 0.0 iph
06/19/2018 17:11 Dry 66.6F - 56F - - - - - - 0 mhos 0 - None None 0.35 in 0.0 iph
06/19/2018 17:06 Dry 66.6F - 56F - - - - - - 0 mhos 0 - None None 0.35 in 0.0 iph
06/19/2018 17:00 Dry 66.4F - 56F - - - - - - 0 mhos 0 - None None 0.35 in 0.0 iph
06/19/2018 16:51 Dry 66.4F - 56F - - - - - - 0 mhos 0 - None None 0.36 in 0.0 iph
06/19/2018 16:50 Dry 66.4F - 56F - - - - - - 0 mhos 0 - None None 0.36 in 0.0 iph
06/19/2018 16:40 Dry 67.1F - 56F - - - - - - 0 mhos 0 - None None 0.36 in 0.0 iph
06/19/2018 16:36 Dry 67.3F - 56F - - - - - - 0 mhos 0 - None None 0.36 in 0.0 iph
06/19/2018 16:30 Dry 66.9F - 56F - - - - - - 0 mhos 0 - None None 0.36 in 0.0 iph
06/19/2018 16:21 Dry 66.7F - 56F - - - - - - 0 mhos 0 - None None 0.37 in 0.0 iph
06/19/2018 16:20 Dry 66.9F - 56F - - - - - - 0 mhos 0 - None None 0.37 in 0.0 iph
Date/Time
(MDT)
Sf
Temp Chem Water Layer Surface Precipitation
Sfc Pvt Sub Frz Factor Pct Dpth DpthThk IcePct Cond Salin FI Type Intens Accum Rate
06/19/2018 16:10 Dry 66.7F - 56F - - - - - - 0 mhos 0 - None None 0.37 in 0.0 iph
06/19/2018 16:06 Dry 66.4F - 56F - - - - - - 0 mhos 0 - None None 0.37 in 0.0 iph
06/19/2018 16:00 Dry 64.2F - 56F - - - - - - 0 mhos 0 - None None 0.37 in 0.0 iph
06/19/2018 15:51 Dry 64.0F - 56F - - - - - - 0 mhos 0 - None None 0.37 in 0.0 iph
06/19/2018 15:50 Dry 64.0F - 56F - - - - - - 0 mhos 0 - None None 0.37 in 0.0 iph
06/19/2018 15:40 Dry 64.9F - 56F - - - - - - 0 mhos 0 - None None 0.37 in 0.0 iph
06/19/2018 15:37 Dry 65.1F - 56F - - - - - - 0 mhos 0 - None None 0.38 in 0.0 iph
06/19/2018 15:30 Dry 66.0F - 56F - - - - - - 0 mhos 0 - None None 0.38 in 0.0 iph
06/19/2018 15:21 Dry 66.6F - 56F - - - - - - 0 mhos 0 - None None 0.38 in 0.0 iph
06/19/2018 15:20 Dry 66.4F - 56F - - - - - - 0 mhos 0 - None None 0.38 in 0.0 iph
06/19/2018 15:10 Dry 66.9F - 56F - - - - - - 0 mhos 0 - None None 0.38 in 0.0 iph
06/19/2018 15:06 Dry 67.6F - 56F - - - - - - 0 mhos 0 - None None 0.38 in 0.0 iph
06/19/2018 15:00 Dry 69.8F - 56F - - - - - - 0 mhos 0 - None None 0.38 in 0.0 iph
06/19/2018 14:51 Dry 74.5F - 56F - - - - - - 0 mhos 0 - None None 0.38 in 0.0 iph
06/19/2018 14:50 Dry 76.3F - 56F - - - - - - 0 mhos 0 - None None 0.38 in 0.0 iph
Date/Time
(MDT)
Sf
Temp Chem Water Layer Surface Precipitation
Sfc Pvt Sub Frz Factor Pct Dpth DpthThk IcePct Cond Salin FI Type Intens Accum Rate
06/19/2018 14:40 Dry 74.8F - 56F - - - - - - 0 mhos 0 - None None 0.38 in 0.0 iph
06/19/2018 14:36 Dry 74.1F - 56F - - - - - - 0 mhos 0 - None None 0.40 in 0.0 iph
06/19/2018 14:29 Dry 74.3F - 56F - - - - - - 0 mhos 0 - None None 0.40 in 0.0 iph
06/19/2018 14:22 Dry 76.1F - 56F - - - - - - 0 mhos 0 - None None 0.42 in 0.0 iph
06/19/2018 14:19 Dry 75.6F - 56F - - - - - - 0 mhos 0 - None None 0.42 in 0.0 iph
06/19/2018 14:09 Dry 72.0F - 56F - - - - - - 0 mhos 0 - None None 0.43 in 0.0 iph
06/19/2018 14:06 Dry 72.0F - 56F - - - - - - 0 mhos 0 - None None 0.43 in 0.0 iph
06/19/2018 13:59 Dry 72.5F - 56F - - - - - - 0 mhos 0 - None None 0.43 in 0.0 iph
06/19/2018 13:51 Dry 68.9F - 56F - - - - - - 0 mhos 0 - None None 0.44 in 0.0 iph
06/19/2018 13:49 Dry 68.2F - 56F - - - - - - 0 mhos 0 - None None 0.44 in 0.0 iph
06/19/2018 13:39 Dry 68.4F - 56F - - - - - - 0 mhos 0 - None None 0.44 in 0.0 iph
06/19/2018 13:36 Dry 67.8F - 56F - - - - - - 0 mhos 0 - None None 0.44 in 0.0 iph
06/19/2018 13:29 Dry 65.1F - 56F - - - - - - 0 mhos 0 - None None 0.44 in 0.0 iph
06/19/2018 13:21 Dry 61.9F - 56F - - - - - - 0 mhos 1 - None None 0.44 in 0.0 iph
06/19/2018 13:19 Dry 61.7F - 56F - - - - - - 0 mhos 1 - None None 0.44 in 0.0 iph
Date/Time
(MDT)
Sf
Temp Chem Water Layer Surface Precipitation
Sfc Pvt Sub Frz Factor Pct Dpth DpthThk IcePct Cond Salin FI Type Intens Accum Rate
06/19/2018 13:09 Wet 60.3F - 56F 32F 5 0% 0.00 in - 0% 0 mhos 3 - None None 0.44 in 0.0 iph
06/19/2018 13:06 Wet 60.8F - 56F 32F 5 0% 0.00 in - 0% 0 mhos 4 - None None 0.45 in 0.0 iph
06/19/2018 12:59 Wet 61.2F - 56F 32F 5 0% 0.00 in - 0% 0 mhos 4 - None None 0.45 in 0.0 iph
06/19/2018 12:51 Wet 59.9F - 56F 32F 5 0% 0.00 in - 0% 0 mhos 5 - None None 0.45 in 0.0 iph
06/19/2018 12:49 Wet 59.5F - 56F 32F 5 0% 0.00 in - 0% 0 mhos 5 - None None 0.45 in 0.0 iph
06/19/2018 12:39 Wet 57.4F - 56F 32F 5 0% 0.00 in - 0% 0 mhos 6 - None None 0.46 in 0.0 iph
06/19/2018 12:36 Wet 56.5F - 56F 32F 5 0% 0.00 in - 0% 0 mhos 6 - None None 0.46 in 0.0 iph
06/19/2018 12:29 Wet 55.6F - 56F 32F 5 0% 0.00 in - 0% 0 mhos 4 - None None 0.46 in 0.0 iph
06/19/2018 12:21 Wet 54.7F - 56F 32F 5 0% 0.00 in - 0% 0 mhos 5 - None None 0.46 in 0.0 iph
06/19/2018 12:19 Wet 54.5F - 56F 32F 5 0% 0.00 in - 0% 0 mhos 5 - None None 0.46 in 0.0 iph
06/19/2018 12:09 Wet 52.7F - 56F 32F 5 0% 0.00 in - 0% 0 mhos 4 - None None 0.47 in 0.0 iph
06/19/2018 12:06 Wet 52.5F - 56F 32F 5 0% 0.00 in - 0% 0 mhos 4 - Rain Slight 0.47 in 0.0 iph
06/19/2018 11:59 Wet 52.7F - 56F 32F 5 0% 0.00 in - 0% 0 mhos 4 - Rain Slight 0.47 in 0.0 iph
06/19/2018 11:51 Wet 52.5F - 56F 32F 5 0% 0.00 in - 0% 0 mhos 4 - Rain Slight 0.47 in 0.0 iph
06/19/2018 11:49 Wet 52.7F - 56F 32F 5 0% 0.00 in - 0% 0 mhos 4 - Rain Slight 0.47 in 0.0 iph
Date/Time
(MDT)
Sf
Temp Chem Water Layer Surface Precipitation
Sfc Pvt Sub Frz Factor Pct Dpth DpthThk IcePct Cond Salin FI Type Intens Accum Rate
06/19/2018 11:38 Wet 52.7F - 56F 32F 5 0% 0.00 in - 0% 0 mhos 5 - Rain Slight 0.47 in 0.0 iph
06/19/2018 11:36 Wet 52.9F - 56F 32F 5 0% 0.00 in - 0% 0 mhos 6 - Rain Slight 0.48 in 0.0 iph
06/19/2018 11:28 Wet 53.2F - 56F 32F 5 0% 0.00 in - 0% 0 mhos 6 - Rain Moderate 0.48 in 0.0 iph
06/19/2018 11:22 Wet 53.1F - 56F 32F 5 0% 0.00 in - 0% 0 mhos 6 - Rain Moderate 0.48 in 0.0 iph
06/19/2018 11:18 Wet 53.1F - 56F 32F 5 0% 0.00 in - 0% 0 mhos 4 - Rain Moderate 0.48 in 0.0 iph
06/19/2018 11:08 Wet 53.6F - 56F 32F 5 0% 0.00 in - 0% 0 mhos 5 - Rain Moderate 0.48 in 0.0 iph
06/19/2018 11:06 Wet 53.8F - 56F 32F 5 0% 0.00 in - 0% 0 mhos 5 - Rain Moderate 0.49 in 0.0 iph
06/19/2018 10:58 Wet 53.8F - 56F 32F 5 0% 0.00 in - 0% 0 mhos 5 - Rain Slight 0.49 in 0.0 iph
06/19/2018 10:52 Wet 53.6F - 56F 32F 5 0% 0.00 in - 0% 0 mhos 6 - Rain Slight 0.50 in 0.0 iph
06/19/2018 10:48 Wet 53.2F - 56F 32F 5 0% 0.00 in - 0% 0 mhos 6 - Rain Slight 0.50 in 0.0 iph
06/19/2018 10:38 Wet 52.2F - 56F 32F 5 0% 0.00 in - 0% 0 mhos 5 - None None 0.51 in 0.0 iph
06/19/2018 10:36 Wet 52.2F - 56F 32F 5 0% 0.00 in - 0% 0 mhos 4 - None None 0.52 in 0.0 iph
06/19/2018 10:28 Wet 51.4F - 56F 32F 5 0% 0.00 in - 0% 0 mhos 4 - Rain Slight 0.52 in 0.0 iph
06/19/2018 10:21 Wet 51.3F - 56F 32F 5 0% 0.00 in - 0% 0 mhos 5 - Rain Slight 0.52 in 0.0 iph
06/19/2018 10:18 Wet 51.3F - 56F 32F 5 0% 0.00 in - 0% 0 mhos 5 - Rain Slight 0.52 in 0.0 iph
Date/Time
(MDT)
Sf
Temp Chem Water Layer Surface Precipitation
Sfc Pvt Sub Frz Factor Pct Dpth DpthThk IcePct Cond Salin FI Type Intens Accum Rate
06/19/2018 10:08 Wet 51.4F - 56F 32F 5 0% 0.00 in - 0% 0 mhos 5 - None None 0.53 in 0.0 iph
06/19/2018 10:06 Wet 51.4F - 56F 32F 5 0% 0.00 in - 0% 0 mhos 5 - None None 0.53 in 0.0 iph
06/19/2018 09:58 Wet 52.0F - 56F 32F 5 0% 0.00 in - 0% 0 mhos 4 - None None 0.54 in 0.0 iph
06/19/2018 09:51 Wet 51.4F - 56F 32F 5 0% 0.00 in - 0% 0 mhos 5 - Rain Moderate 0.54 in 0.0 iph
06/19/2018 09:48 Wet 51.3F - 56F 32F 5 0% 0.00 in - 0% 0 mhos 5 - Rain Moderate 0.55 in 0.0 iph
06/19/2018 09:38 Wet 51.1F - 56F 32F 5 0% 0.00 in - 0% 0 mhos 5 - Rain Moderate 0.55 in 0.0 iph
06/19/2018 09:36 Wet 50.9F - 56F 32F 5 0% 0.00 in - 0% 0 mhos 5 - Rain Moderate 0.55 in 0.0 iph
06/19/2018 09:28 Wet 51.3F - 56F 32F 5 0% 0.00 in - 0% 0 mhos 4 - Rain Slight 0.55 in 0.0 iph
06/19/2018 09:21 Wet 51.3F - 56F 32F 5 0% 0.00 in - 0% 0 mhos 2 - Rain Slight 0.55 in 0.0 iph
06/19/2018 09:18 Wet 51.3F - 56F 32F 5 0% 0.00 in - 0% 0 mhos 5 - Rain Slight 0.56 in 0.0 iph
06/19/2018 09:07 Wet 51.3F - 56F 32F 5 0% 0.00 in - 0% 0 mhos 5 - Rain Slight 0.56 in 0.0 iph
06/19/2018 09:06 Wet 51.3F - 56F 32F 5 0% 0.00 in - 0% 0 mhos 5 - Rain Slight 0.56 in 0.0 iph
06/19/2018 08:57 Wet 51.1F - 56F 32F 5 0% 0.00 in - 0% 0 mhos 3 - Rain Slight 0.57 in 0.0 iph
06/19/2018 08:51 Wet 51.1F - 56F 32F 5 0% 0.00 in - 0% 0 mhos 4 - Rain Slight 0.57 in 0.0 iph
06/19/2018 08:47 Wet 50.9F - 56F 32F 5 0% 0.00 in - 0% 0 mhos 4 - Rain Slight 0.57 in 0.0 iph
Date/Time
(MDT)
Sf
Temp Chem Water Layer Surface Precipitation
Sfc Pvt Sub Frz Factor Pct Dpth DpthThk IcePct Cond Salin FI Type Intens Accum Rate
06/19/2018 08:37 Wet 50.5F - 56F 32F 5 0% 0.00 in - 0% 0 mhos 4 - Rain Slight 0.57 in 0.0 iph
06/19/2018 08:36 Wet 50.4F - 56F 32F 5 0% 0.00 in - 0% 0 mhos 3 - Rain Slight 0.57 in 0.0 iph
06/19/2018 08:27 Wet 50.2F - 56F 32F 5 0% 0.00 in - 0% 0 mhos 4 - Rain Slight 0.57 in 0.0 iph
06/19/2018 08:21 Wet 50.2F - 56F 32F 5 0% 0.00 in - 0% 0 mhos 4 - Rain Slight 0.57 in 0.0 iph
06/19/2018 08:17 Wet 50.0F - 56F 32F 5 0% 0.00 in - 0% 0 mhos 4 - Rain Slight 0.57 in 0.0 iph
06/19/2018 08:07 Wet 50.0F - 56F 32F 5 0% 0.00 in - 0% 0 mhos 5 - Rain Slight 0.57 in 0.0 iph
06/19/2018 08:06 Wet 50.0F - 56F 32F 5 0% 0.00 in - 0% 0 mhos 4 - Rain Slight 0.57 in 0.0 iph
06/19/2018 07:57 Wet 49.8F - 56F 32F 5 0% 0.00 in - 0% 0 mhos 5 - Rain Moderate 0.58 in 0.0 iph
06/19/2018 07:51 Wet 49.8F - 56F 32F 5 0% 0.00 in - 0% 0 mhos 4 - Rain Moderate 0.57 in 0.0 iph
06/19/2018 07:47 Wet 49.8F - 56F 32F 5 0% 0.00 in - 0% 0 mhos 5 - Rain Moderate 0.57 in 0.0 iph
06/19/2018 07:37 Wet 50.2F - 56F 32F 5 0% 0.00 in - 0% 0 mhos 5 - None None 0.57 in 0.0 iph
06/19/2018 07:36 Wet 50.2F - 56F 32F 5 0% 0.00 in - 0% 0 mhos 5 - None None 0.57 in 0.0 iph
06/19/2018 07:27 Wet 49.6F - 56F 32F 5 0% 0.00 in - 0% 0 mhos 5 - None None 0.58 in 0.0 iph
06/19/2018 07:21 Wet 49.5F - 56F 32F 5 0% 0.00 in - 0% 0 mhos 5 - None None 0.58 in 0.0 iph
06/19/2018 07:17 Wet 49.3F - 56F 32F 5 0% 0.00 in - 0% 0 mhos 5 - Rain Slight 0.58 in 0.0 iph
Date/Time
(MDT)
Sf
Temp Chem Water Layer Surface Precipitation
Sfc Pvt Sub Frz Factor Pct Dpth DpthThk IcePct Cond Salin FI Type Intens Accum Rate
06/19/2018 07:07 Wet 49.3F - 56F 32F 5 0% 0.00 in - 0% 0 mhos 5 - Rain Slight 0.58 in 0.0 iph
06/19/2018 07:06 Wet 49.3F - 56F 32F 5 0% 0.00 in - 0% 0 mhos 5 - Rain Slight 0.58 in 0.0 iph
06/19/2018 06:57 Wet 49.5F - 56F 32F 5 0% 0.00 in - 0% 0 mhos 4 - Rain Moderate 0.59 in 0.0 iph
06/19/2018 06:51 Wet 49.3F - 56F 32F 5 0% 0.00 in - 0% 0 mhos 4 - Rain Moderate 0.58 in 0.0 iph
06/19/2018 06:47 Wet 48.9F - 56F 32F 5 0% 0.00 in - 0% 0 mhos 4 - Rain Slight 0.59 in 0.0 iph
06/19/2018 06:37 Wet 48.6F - 56F 32F 5 0% 0.00 in - 0% 0 mhos 4 - None None 0.59 in 0.0 iph
06/19/2018 06:36 Wet 48.4F - 56F 32F 5 0% 0.00 in - 0% 0 mhos 4 - None None 0.59 in 0.0 iph
06/19/2018 06:26 Wet 48.4F - 56F 32F 5 0% 0.00 in - 0% 0 mhos 3 - None None 0.59 in 0.0 iph
06/19/2018 06:21 Wet 48.6F - 56F 32F 5 0% 0.00 in - 0% 0 mhos 3 - None None 0.59 in 0.0 iph
06/19/2018 06:16 Wet 48.4F - 56F 32F 5 0% 0.00 in - 0% 0 mhos 3 - None None 0.59 in 0.0 iph
06/19/2018 06:06 Wet 48.4F - 56F 32F 5 0% 0.00 in - 0% 0 mhos 2 - Rain Slight 0.59 in 0.0 iph
06/19/2018 06:06 Wet 48.6F - 56F 32F 5 0% 0.00 in - 0% 0 mhos 2 - Rain Slight 0.59 in 0.0 iph
06/19/2018 05:56 Wet 48.7F - 56F 32F 5 0% 0.00 in - 0% 0 mhos 2 - Rain Moderate 0.60 in 0.0 iph
06/19/2018 05:51 Wet 48.4F - 56F 32F 5 0% 0.00 in - 0% 0 mhos 2 - Rain Slight 0.59 in 0.0 iph
06/19/2018 05:46 Wet 48.6F - 56F 32F 5 0% 0.00 in - 0% 0 mhos 2 - Rain Slight 0.60 in 0.0 iph
Date/Time
(MDT)
Sf
Temp Chem Water Layer Surface Precipitation
Sfc Pvt Sub Frz Factor Pct Dpth DpthThk IcePct Cond Salin FI Type Intens Accum Rate
06/19/2018 05:36 Wet 48.4F - 56F 32F 5 0% 0.00 in - 0% 0 mhos 2 - Rain Slight 0.61 in 0.0 iph
06/19/2018 05:36 Wet 48.4F - 56F 32F 5 0% 0.00 in - 0% 0 mhos 2 - Rain Slight 0.61 in 0.0 iph
06/19/2018 05:26 Wet 48.6F - 56F 32F 5 0% 0.00 in - 0% 0 mhos 2 - Rain Slight 0.61 in 0.0 iph
06/19/2018 05:21 Wet 48.6F - 56F 32F 5 0% 0.00 in - 0% 0 mhos 2 - Rain Slight 0.61 in 0.0 iph
06/19/2018 05:16 Wet 48.4F - 56F 32F 5 0% 0.00 in - 0% 0 mhos 2 - Rain Slight 0.61 in 0.0 iph
06/19/2018 05:06 Wet 48.4F - 56F 32F 5 0% 0.00 in - 0% 0 mhos 2 - Rain Slight 0.61 in 0.0 iph
06/19/2018 05:06 Wet 48.4F - 56F 32F 5 0% 0.00 in - 0% 0 mhos 2 - Rain Slight 0.61 in 0.0 iph
06/19/2018 04:56 Wet 48.6F - 56F 32F 5 0% 0.00 in - 0% 0 mhos 2 - Rain Slight 0.60 in 0.0 iph
06/19/2018 04:51 Wet 48.7F - 56F 32F 5 0% 0.00 in - 0% 0 mhos 1 - Rain Slight 0.60 in 0.0 iph
06/19/2018 04:46 Wet 48.6F - 57F 32F 5 0% 0.00 in - 0% 0 mhos 2 - Rain Slight 0.60 in 0.0 iph
06/19/2018 04:37 Wet 48.6F - 56F 32F 5 0% 0.00 in - 0% 0 mhos 2 - Rain Slight 0.60 in 0.1 iph
06/19/2018 04:36 Wet 48.6F - 56F 32F 5 0% 0.00 in - 0% 0 mhos 2 - Rain Slight 0.59 in 0.0 iph
06/19/2018 04:26 Wet 48.6F - 56F 32F 5 0% 0.00 in - 0% 0 mhos 2 - Rain Slight 0.59 in 0.0 iph
06/19/2018 04:22 Wet 48.6F - 56F 32F 5 0% 0.00 in - 0% 0 mhos 2 - Rain Slight 0.59 in 0.0 iph
06/19/2018 04:16 Wet 48.6F - 56F 32F 5 0% 0.00 in - 0% 0 mhos 3 - Rain Slight 0.59 in 0.0 iph
Date/Time
(MDT)
Sf
Temp Chem Water Layer Surface Precipitation
Sfc Pvt Sub Frz Factor Pct Dpth DpthThk IcePct Cond Salin FI Type Intens Accum Rate
06/19/2018 04:07 Wet 48.6F - 56F 32F 5 0% 0.00 in - 0% 0 mhos 3 - Rain Slight 0.58 in 0.0 iph
06/19/2018 04:06 Wet 48.6F - 56F 32F 5 0% 0.00 in - 0% 0 mhos 3 - Rain Slight 0.58 in 0.0 iph
06/19/2018 03:56 Wet 48.7F - 56F 32F 5 0% 0.00 in - 0% 0 mhos 3 - Rain Slight 0.58 in 0.0 iph
06/19/2018 03:52 Wet 48.7F - 56F 32F 5 0% 0.00 in - 0% 0 mhos 3 - Rain Slight 0.58 in 0.0 iph
06/19/2018 03:45 Wet 48.9F - 56F 32F 5 0% 0.00 in - 0% 0 mhos 3 - Rain Slight 0.58 in 0.1 iph
06/19/2018 03:37 Wet 48.9F - 56F 32F 5 0% 0.00 in - 0% 0 mhos 2 - Rain Slight 0.58 in 0.0 iph
06/19/2018 03:35 Wet 48.9F - 56F 32F 5 0% 0.00 in - 0% 0 mhos 2 - Rain Slight 0.58 in 0.0 iph
06/19/2018 03:25 Wet 48.7F - 56F 32F 5 0% 0.00 in - 0% 0 mhos 2 - Rain Slight 0.58 in 0.0 iph
06/19/2018 03:22 Wet 48.9F - 57F 32F 5 0% 0.00 in - 0% 0 mhos 2 - Rain Slight 0.58 in 0.0 iph
06/19/2018 03:15 Wet 48.9F - 57F 32F 5 0% 0.00 in - 0% 0 mhos 2 - Rain Slight 0.57 in 0.0 iph
06/19/2018 03:07 Wet 48.9F - 57F 32F 5 0% 0.00 in - 0% 0 mhos 2 - Rain Slight 0.57 in 0.0 iph
06/19/2018 03:05 Wet 48.9F - 57F 32F 5 0% 0.00 in - 0% 0 mhos 2 - Rain Slight 0.57 in 0.0 iph
06/19/2018 02:55 Wet 48.9F - 57F 32F 5 0% 0.00 in - 0% 0 mhos 2 - Rain Slight 0.57 in 0.0 iph
06/19/2018 02:52 Wet 48.9F - 57F 32F 5 0% 0.00 in - 0% 0 mhos 2 - Rain Slight 0.57 in 0.0 iph
06/19/2018 02:45 Wet 48.9F - 57F 32F 5 0% 0.00 in - 0% 0 mhos 2 - Rain Slight 0.57 in 0.0 iph
Date/Time
(MDT)
Sf
Temp Chem Water Layer Surface Precipitation
Sfc Pvt Sub Frz Factor Pct Dpth DpthThk IcePct Cond Salin FI Type Intens Accum Rate
06/19/2018 02:37 Wet 48.9F - 57F 32F 5 0% 0.00 in - 0% 0 mhos 2 - Rain Slight 0.57 in 0.0 iph
06/19/2018 02:35 Wet 48.9F - 57F 32F 5 0% 0.00 in - 0% 0 mhos 2 - Rain Slight 0.57 in 0.0 iph
06/19/2018 02:25 Wet 49.1F - 57F 32F 5 0% 0.00 in - 0% 0 mhos 2 - Rain Slight 0.57 in 0.0 iph
06/19/2018 02:22 Wet 49.1F - 57F 32F 5 0% 0.00 in - 0% 0 mhos 2 - Rain Slight 0.57 in 0.0 iph
06/19/2018 02:15 Wet 49.1F - 57F 32F 5 0% 0.00 in - 0% 0 mhos 2 - Rain Slight 0.57 in 0.0 iph
06/19/2018 02:07 Wet 49.1F - 57F 32F 5 0% 0.00 in - 0% 0 mhos 2 - Rain Slight 0.56 in 0.0 iph
06/19/2018 02:05 Wet 49.1F - 57F 32F 5 0% 0.00 in - 0% 0 mhos 2 - Rain Slight 0.56 in 0.0 iph
06/19/2018 01:55 Wet 49.1F - 57F 32F 5 0% 0.00 in - 0% 0 mhos 2 - Rain Slight 0.56 in 0.0 iph
06/19/2018 01:52 Wet 48.9F - 57F 32F 5 0% 0.00 in - 0% 0 mhos 2 - Rain Slight 0.56 in 0.0 iph
06/19/2018 01:45 Wet 48.9F - 57F 32F 5 0% 0.00 in - 0% 0 mhos 2 - Rain Slight 0.56 in 0.0 iph
06/19/2018 01:37 Wet 48.9F - 57F 32F 5 0% 0.00 in - 0% 0 mhos 2 - Rain Slight 0.55 in 0.0 iph
06/19/2018 01:35 Wet 48.9F - 57F 32F 5 0% 0.00 in - 0% 0 mhos 2 - Rain Slight 0.55 in 0.0 iph
Change End Date:

Copyright © 1998-2015 Vaisala, Inc.
All Rights Reserved
Send comments about the data to:
SCAN Web ® is a registered trademark of Vaisala, Inc.
SCAN Web Version 6.0